Merle K (Mudhole) Smith Airport Cordova US
ICAO: PACV
IATA:
Category: Medium
Scheduled Services:

Elevation: 54 ft
TransAlt. 18000 ft.

Airport Communications:
ANCHORAGE APP/DEP:133.6
ASOS:134.8
CTAF:123.6
JUNEAU RDO:122.2

PACV Zoom In..

Runways:

(A) RW 09 length 7500 ft width 150 ft
---- / hdg 95

(B) RW 16 length 1899 ft width 30 ft
---- / hdg 162

(C) RW 27 length 7500 ft width 150 ft
ILS 110.70 / hdg 275

(D) RW 34 length 1899 ft width 30 ft
---- / hdg 342

Location; PACV
Day. 16 / Time. 17.53 Zulu
* Altimeter: 29.94
* Temperature: 13° c. 55.4°f.
* Wind from: 000° Speed 00 kn.
Dewpoint: 11° c.
Visibility: 10 Statute Miles.
Clouds: Few 1400 ft.
Clouds: Scattered 8000 ft.
Clouds: Broken 14000 ft.

PACV 161753Z 00000KT 10SM FEW014 SCT080 BKN140 13/11 A2994 RMK AO2 SLP140 T01330106 10133 20072 51013


Wind - Calm.

 
 
jpsmedia.com for Web Design worldairports.se 2018   terms of use